sensor_id;sensor_type;location;lat;lon;timestamp;pressure;altitude;pressure_sealevel;temperature;humidity
71915;BME280;60387;49.994;14.660;2023-05-23T00:00:04;97221.38;;;22.70;41.04
71915;BME280;60387;49.994;14.660;2023-05-23T00:02:37;97223.75;;;22.68;41.09
71915;BME280;60387;49.994;14.660;2023-05-23T00:05:11;97222.97;;;22.68;41.51
71915;BME280;60387;49.994;14.660;2023-05-23T00:07:44;97227.69;;;22.67;41.11
71915;BME280;60387;49.994;14.660;2023-05-23T00:10:17;97226.13;;;22.66;40.60
71915;BME280;60387;49.994;14.660;2023-05-23T00:12:51;97220.59;;;22.63;40.89
71915;BME280;60387;49.994;14.660;2023-05-23T00:15:24;97220.19;;;22.61;40.50
71915;BME280;60387;49.994;14.660;2023-05-23T00:17:57;97220.56;;;22.59;40.57
71915;BME280;60387;49.994;14.660;2023-05-23T00:20:30;97219.78;;;22.55;41.25
71915;BME280;60387;49.994;14.660;2023-05-23T00:23:04;97217.00;;;22.48;41.12
71915;BME280;60387;49.994;14.660;2023-05-23T00:25:37;97215.81;;;22.46;42.04
71915;BME280;60387;49.994;14.660;2023-05-23T00:28:10;97222.84;;;22.40;43.10
71915;BME280;60387;49.994;14.660;2023-05-23T00:30:43;97212.97;;;22.25;42.33
71915;BME280;60387;49.994;14.660;2023-05-23T00:33:17;97224.38;;;22.23;41.96
71915;BME280;60387;49.994;14.660;2023-05-23T00:35:50;97223.97;;;22.18;41.99
71915;BME280;60387;49.994;14.660;2023-05-23T00:38:24;97214.47;;;22.12;43.20
71915;BME280;60387;49.994;14.660;2023-05-23T00:40:57;97222.34;;;22.10;44.99
71915;BME280;60387;49.994;14.660;2023-05-23T00:43:30;97224.69;;;22.01;43.29
71915;BME280;60387;49.994;14.660;2023-05-23T00:46:04;97225.44;;;21.94;42.98
71915;BME280;60387;49.994;14.660;2023-05-23T00:48:37;97229.75;;;21.92;42.73
71915;BME280;60387;49.994;14.660;2023-05-23T00:51:11;97221.06;;;21.86;42.11
71915;BME280;60387;49.994;14.660;2023-05-23T00:53:44;97225.34;;;21.80;42.85
71915;BME280;60387;49.994;14.660;2023-05-23T00:56:17;97224.13;;;21.74;42.53
71915;BME280;60387;49.994;14.660;2023-05-23T00:58:51;97240.28;;;21.72;42.74
71915;BME280;60387;49.994;14.660;2023-05-23T01:01:24;97244.97;;;21.68;42.44
71915;BME280;60387;49.994;14.660;2023-05-23T01:03:57;97242.16;;;21.61;42.38
71915;BME280;60387;49.994;14.660;2023-05-23T01:06:31;97241.31;;;21.57;42.13
71915;BME280;60387;49.994;14.660;2023-05-23T01:09:05;97250.78;;;21.56;42.28
71915;BME280;60387;49.994;14.660;2023-05-23T01:11:49;97238.94;;;21.52;42.45
71915;BME280;60387;49.994;14.660;2023-05-23T01:14:50;97250.31;;;21.47;43.15
71915;BME280;60387;49.994;14.660;2023-05-23T01:20:15;97235.63;;;21.29;43.94
71915;BME280;60387;49.994;14.660;2023-05-23T01:28:14;97228.41;;;21.14;46.99
71915;BME280;60387;49.994;14.660;2023-05-23T01:30:51;97221.66;;;21.08;46.41
71915;BME280;60387;49.994;14.660;2023-05-23T01:33:25;97224.81;;;21.07;46.03
71915;BME280;60387;49.994;14.660;2023-05-23T01:36:01;97223.22;;;21.06;44.47
71915;BME280;60387;49.994;14.660;2023-05-23T01:38:34;97221.66;;;21.08;44.99
71915;BME280;60387;49.994;14.660;2023-05-23T01:41:07;97215.75;;;21.06;45.47
71915;BME280;60387;49.994;14.660;2023-05-23T01:43:41;97215.34;;;21.04;44.96
71915;BME280;60387;49.994;14.660;2023-05-23T01:46:15;97208.25;;;21.03;45.31
71915;BME280;60387;49.994;14.660;2023-05-23T01:48:49;97200.34;;;21.02;44.66
71915;BME280;60387;49.994;14.660;2023-05-23T01:51:22;97202.34;;;21.01;45.00
71915;BME280;60387;49.994;14.660;2023-05-23T01:53:56;97200.75;;;21.00;45.27
71915;BME280;60387;49.994;14.660;2023-05-23T01:56:30;97201.50;;;20.97;44.86
71915;BME280;60387;49.994;14.660;2023-05-23T01:59:03;97190.47;;;20.97;44.78
71915;BME280;60387;49.994;14.660;2023-05-23T02:01:36;97193.63;;;20.99;44.73
71915;BME280;60387;49.994;14.660;2023-05-23T02:04:10;97197.63;;;21.05;47.75
71915;BME280;60387;49.994;14.660;2023-05-23T02:06:43;97199.22;;;21.06;46.02
71915;BME280;60387;49.994;14.660;2023-05-23T02:09:16;97198.47;;;21.13;45.79
71915;BME280;60387;49.994;14.660;2023-05-23T02:11:50;97196.91;;;21.15;46.50
71915;BME280;60387;49.994;14.660;2023-05-23T02:14:23;97196.91;;;21.12;46.93
71915;BME280;60387;49.994;14.660;2023-05-23T02:16:56;97209.53;;;21.16;46.07
71915;BME280;60387;49.994;14.660;2023-05-23T02:19:29;97200.06;;;21.17;46.72
71915;BME280;60387;49.994;14.660;2023-05-23T02:22:03;97207.97;;;21.19;45.59
71915;BME280;60387;49.994;14.660;2023-05-23T02:24:36;97217.84;;;21.23;45.36
71915;BME280;60387;49.994;14.660;2023-05-23T02:27:09;97216.66;;;21.24;44.94
71915;BME280;60387;49.994;14.660;2023-05-23T02:29:46;97232.47;;;21.27;45.70
71915;BME280;60387;49.994;14.660;2023-05-23T02:32:19;97242.28;;;21.25;45.47
71915;BME280;60387;49.994;14.660;2023-05-23T02:34:52;97235.97;;;21.24;44.76
71915;BME280;60387;49.994;14.660;2023-05-23T02:37:26;97231.63;;;21.23;45.36
71915;BME280;60387;49.994;14.660;2023-05-23T02:39:59;97230.03;;;21.22;44.70
71915;BME280;60387;49.994;14.660;2023-05-23T02:42:32;97226.84;;;21.17;44.71
71915;BME280;60387;49.994;14.660;2023-05-23T02:45:07;97239.09;;;21.19;44.49
71915;BME280;60387;49.994;14.660;2023-05-23T02:47:40;97237.06;;;21.16;44.45
71915;BME280;60387;49.994;14.660;2023-05-23T02:50:13;97217.28;;;21.04;44.30
71915;BME280;60387;49.994;14.660;2023-05-23T02:52:47;97239.44;;;21.18;44.33
71915;BME280;60387;49.994;14.660;2023-05-23T02:55:20;97253.63;;;21.20;46.46
71915;BME280;60387;49.994;14.660;2023-05-23T02:57:53;97255.53;;;21.12;46.27
71915;BME280;60387;49.994;14.660;2023-05-23T03:00:26;97246.41;;;21.01;45.50
71915;BME280;60387;49.994;14.660;2023-05-23T03:03:00;97248.72;;;20.99;45.88
71915;BME280;60387;49.994;14.660;2023-05-23T03:05:33;97255.38;;;20.95;46.64
71915;BME280;60387;49.994;14.660;2023-05-23T03:08:06;97262.00;;;20.90;45.97
71915;BME280;60387;49.994;14.660;2023-05-23T03:10:39;97257.97;;;20.81;47.47
71915;BME280;60387;49.994;14.660;2023-05-23T03:13:13;97258.66;;;20.74;46.03
71915;BME280;60387;49.994;14.660;2023-05-23T03:15:46;97257.44;;;20.68;47.27
71915;BME280;60387;49.994;14.660;2023-05-23T03:18:19;97257.38;;;20.61;46.41
71915;BME280;60387;49.994;14.660;2023-05-23T03:20:53;97240.38;;;20.52;45.93
71915;BME280;60387;49.994;14.660;2023-05-23T03:23:26;97236.75;;;20.48;45.60
71915;BME280;60387;49.994;14.660;2023-05-23T03:25:59;97249.72;;;20.44;45.80
71915;BME280;60387;49.994;14.660;2023-05-23T03:28:32;97247.72;;;20.41;45.94
71915;BME280;60387;49.994;14.660;2023-05-23T03:31:09;97245.28;;;20.36;46.35
71915;BME280;60387;49.994;14.660;2023-05-23T03:33:42;97249.63;;;20.37;46.01
71915;BME280;60387;49.994;14.660;2023-05-23T03:36:15;97238.63;;;20.37;45.72
71915;BME280;60387;49.994;14.660;2023-05-23T03:38:49;97235.88;;;20.37;45.44
71915;BME280;60387;49.994;14.660;2023-05-23T03:41:22;97235.63;;;20.49;46.53
71915;BME280;60387;49.994;14.660;2023-05-23T03:43:55;97234.09;;;20.55;46.66
71915;BME280;60387;49.994;14.660;2023-05-23T03:46:28;97234.53;;;20.61;45.73
71915;BME280;60387;49.994;14.660;2023-05-23T03:49:02;97227.16;;;20.68;46.65
71915;BME280;60387;49.994;14.660;2023-05-23T03:51:35;97222.44;;;20.69;46.59
71915;BME280;60387;49.994;14.660;2023-05-23T03:54:08;97210.66;;;20.68;46.47
71915;BME280;60387;49.994;14.660;2023-05-23T03:56:41;97220.09;;;20.67;45.85
71915;BME280;60387;49.994;14.660;2023-05-23T03:59:15;97208.69;;;20.69;45.59
71915;BME280;60387;49.994;14.660;2023-05-23T04:01:48;97225.28;;;20.76;45.74
71915;BME280;60387;49.994;14.660;2023-05-23T04:04:21;97227.25;;;20.75;45.50
71915;BME280;60387;49.994;14.660;2023-05-23T04:06:55;97226.88;;;20.80;45.46
71915;BME280;60387;49.994;14.660;2023-05-23T04:09:28;97222.56;;;20.79;45.36
71915;BME280;60387;49.994;14.660;2023-05-23T04:12:01;97237.19;;;20.87;45.97
71915;BME280;60387;49.994;14.660;2023-05-23T04:14:35;97234.06;;;20.88;45.69
71915;BME280;60387;49.994;14.660;2023-05-23T04:17:08;97240.41;;;20.92;45.87
71915;BME280;60387;49.994;14.660;2023-05-23T04:19:41;97232.97;;;20.96;45.46
71915;BME280;60387;49.994;14.660;2023-05-23T04:22:15;97228.47;;;21.21;45.29
71915;BME280;60387;49.994;14.660;2023-05-23T04:24:48;97229.53;;;21.57;45.24
71915;BME280;60387;49.994;14.660;2023-05-23T04:27:21;97228.16;;;21.87;45.12
71915;BME280;60387;49.994;14.660;2023-05-23T04:29:55;97228.66;;;22.14;44.14
71915;BME280;60387;49.994;14.660;2023-05-23T04:32:28;97231.84;;;22.19;43.67
71915;BME280;60387;49.994;14.660;2023-05-23T04:35:01;97225.16;;;22.27;43.93
71915;BME280;60387;49.994;14.660;2023-05-23T04:37:35;97227.22;;;22.41;43.68
71915;BME280;60387;49.994;14.660;2023-05-23T04:40:08;97221.78;;;22.62;43.41
71915;BME280;60387;49.994;14.660;2023-05-23T04:42:42;97221.41;;;22.84;43.51
71915;BME280;60387;49.994;14.660;2023-05-23T04:45:15;97217.09;;;22.83;42.63
71915;BME280;60387;49.994;14.660;2023-05-23T04:47:48;97211.53;;;22.73;42.66
71915;BME280;60387;49.994;14.660;2023-05-23T04:50:22;97219.81;;;22.73;42.86
71915;BME280;60387;49.994;14.660;2023-05-23T04:52:55;97213.91;;;22.67;43.11
71915;BME280;60387;49.994;14.660;2023-05-23T04:55:28;97221.00;;;22.72;42.89
71915;BME280;60387;49.994;14.660;2023-05-23T04:58:01;97208.00;;;22.76;43.06
71915;BME280;60387;49.994;14.660;2023-05-23T05:00:35;97211.94;;;22.78;42.49
71915;BME280;60387;49.994;14.660;2023-05-23T05:03:08;97217.88;;;22.77;42.43
71915;BME280;60387;49.994;14.660;2023-05-23T05:05:41;97215.88;;;22.74;42.35
71915;BME280;60387;49.994;14.660;2023-05-23T05:08:14;97208.00;;;22.72;42.50
71915;BME280;60387;49.994;14.660;2023-05-23T05:10:48;97210.34;;;22.70;42.68
71915;BME280;60387;49.994;14.660;2023-05-23T05:13:21;97199.28;;;22.70;43.11
71915;BME280;60387;49.994;14.660;2023-05-23T05:15:54;97203.25;;;22.76;43.76
71915;BME280;60387;49.994;14.660;2023-05-23T05:18:28;97196.56;;;22.88;43.32
71915;BME280;60387;49.994;14.660;2023-05-23T05:21:02;97192.25;;;22.94;44.16
71915;BME280;60387;49.994;14.660;2023-05-23T05:23:35;97196.16;;;22.96;43.93
71915;BME280;60387;49.994;14.660;2023-05-23T05:26:09;97193.00;;;22.98;43.96
71915;BME280;60387;49.994;14.660;2023-05-23T05:28:42;97185.53;;;23.05;44.40
71915;BME280;60387;49.994;14.660;2023-05-23T05:31:15;97181.22;;;23.18;44.17
71915;BME280;60387;49.994;14.660;2023-05-23T05:33:48;97172.91;;;23.32;43.77
71915;BME280;60387;49.994;14.660;2023-05-23T05:36:22;97169.72;;;23.44;43.66
71915;BME280;60387;49.994;14.660;2023-05-23T05:38:55;97163.00;;;23.59;43.78
71915;BME280;60387;49.994;14.660;2023-05-23T05:41:28;97162.53;;;23.92;43.85
71915;BME280;60387;49.994;14.660;2023-05-23T05:44:02;97161.53;;;24.30;43.73
71915;BME280;60387;49.994;14.660;2023-05-23T05:46:35;97153.84;;;24.69;43.55
71915;BME280;60387;49.994;14.660;2023-05-23T05:49:08;97163.88;;;25.00;42.98
71915;BME280;60387;49.994;14.660;2023-05-23T05:51:41;97163.72;;;25.21;42.78
71915;BME280;60387;49.994;14.660;2023-05-23T05:54:15;97167.59;;;25.30;42.55
71915;BME280;60387;49.994;14.660;2023-05-23T05:56:48;97140.38;;;25.15;42.51
71915;BME280;60387;49.994;14.660;2023-05-23T05:59:21;97179.06;;;25.36;42.13
71915;BME280;60387;49.994;14.660;2023-05-23T06:01:54;97185.72;;;25.42;42.41
71915;BME280;60387;49.994;14.660;2023-05-23T06:04:28;97181.69;;;25.50;41.96
71915;BME280;60387;49.994;14.660;2023-05-23T06:07:01;97176.38;;;25.66;42.33
71915;BME280;60387;49.994;14.660;2023-05-23T06:09:34;97190.00;;;25.90;42.50
71915;BME280;60387;49.994;14.660;2023-05-23T06:12:08;97183.31;;;26.21;41.96
71915;BME280;60387;49.994;14.660;2023-05-23T06:14:41;97189.16;;;26.60;41.81
71915;BME280;60387;49.994;14.660;2023-05-23T06:17:14;97189.06;;;26.94;41.07
71915;BME280;60387;49.994;14.660;2023-05-23T06:19:47;97191.34;;;27.25;41.22
71915;BME280;60387;49.994;14.660;2023-05-23T06:22:21;97188.66;;;27.44;40.78
71915;BME280;60387;49.994;14.660;2023-05-23T06:24:54;97204.03;;;27.75;40.57
71915;BME280;60387;49.994;14.660;2023-05-23T06:27:27;97199.56;;;28.01;40.58
71915;BME280;60387;49.994;14.660;2023-05-23T06:30:02;97196.78;;;28.20;39.70
71915;BME280;60387;49.994;14.660;2023-05-23T06:32:35;97204.03;;;28.37;39.82
71915;BME280;60387;49.994;14.660;2023-05-23T06:35:08;97225.91;;;28.74;39.68
71915;BME280;60387;49.994;14.660;2023-05-23T06:37:42;97232.22;;;28.98;38.02
71915;BME280;60387;49.994;14.660;2023-05-23T06:40:15;97232.75;;;28.89;37.18
71915;BME280;60387;49.994;14.660;2023-05-23T06:42:48;97253.38;;;28.76;37.19
71915;BME280;60387;49.994;14.660;2023-05-23T06:45:22;97250.47;;;28.63;37.09
71915;BME280;60387;49.994;14.660;2023-05-23T06:47:55;97258.25;;;28.52;37.76
71915;BME280;60387;49.994;14.660;2023-05-23T06:50:28;97258.47;;;28.42;37.10
71915;BME280;60387;49.994;14.660;2023-05-23T06:53:02;97263.88;;;28.29;37.25
71915;BME280;60387;49.994;14.660;2023-05-23T06:55:35;97274.91;;;28.13;35.85
71915;BME280;60387;49.994;14.660;2023-05-23T06:58:08;97277.66;;;27.94;36.20
71915;BME280;60387;49.994;14.660;2023-05-23T07:00:41;97272.41;;;27.76;36.34
71915;BME280;60387;49.994;14.660;2023-05-23T07:03:15;97277.81;;;27.60;36.97
71915;BME280;60387;49.994;14.660;2023-05-23T07:05:48;97273.69;;;27.45;36.41
71915;BME280;60387;49.994;14.660;2023-05-23T07:08:21;97261.66;;;27.29;37.03
71915;BME280;60387;49.994;14.660;2023-05-23T07:10:54;97269.19;;;27.28;36.88
71915;BME280;60387;49.994;14.660;2023-05-23T07:13:28;97274.81;;;27.25;37.48
71915;BME280;60387;49.994;14.660;2023-05-23T07:16:01;97265.38;;;27.19;37.08
71915;BME280;60387;49.994;14.660;2023-05-23T07:18:34;97271.91;;;27.06;36.82
71915;BME280;60387;49.994;14.660;2023-05-23T07:21:07;97274.41;;;26.97;36.87
71915;BME280;60387;49.994;14.660;2023-05-23T07:23:41;97277.41;;;26.83;37.40
71915;BME280;60387;49.994;14.660;2023-05-23T07:26:14;97283.72;;;26.83;37.89
71915;BME280;60387;49.994;14.660;2023-05-23T07:28:47;97279.38;;;26.82;37.45
71915;BME280;60387;49.994;14.660;2023-05-23T07:31:21;97280.94;;;26.83;37.63
71915;BME280;60387;49.994;14.660;2023-05-23T07:33:54;97271.00;;;26.86;37.25
71915;BME280;60387;49.994;14.660;2023-05-23T07:36:27;97256.69;;;26.87;37.57
71915;BME280;60387;49.994;14.660;2023-05-23T07:39:00;97265.34;;;26.93;37.16
71915;BME280;60387;49.994;14.660;2023-05-23T07:41:34;97269.50;;;27.08;36.92
71915;BME280;60387;49.994;14.660;2023-05-23T07:44:07;97273.00;;;27.12;36.55
71915;BME280;60387;49.994;14.660;2023-05-23T07:46:40;97270.94;;;27.19;36.72
71915;BME280;60387;49.994;14.660;2023-05-23T07:49:13;97268.25;;;27.38;37.44
71915;BME280;60387;49.994;14.660;2023-05-23T07:51:47;97262.34;;;27.59;36.57
71915;BME280;60387;49.994;14.660;2023-05-23T07:54:20;97273.06;;;27.84;35.41
71915;BME280;60387;49.994;14.660;2023-05-23T07:56:53;97275.38;;;27.89;35.70
71915;BME280;60387;49.994;14.660;2023-05-23T07:59:27;97287.03;;;28.03;35.99
71915;BME280;60387;49.994;14.660;2023-05-23T08:02:01;97291.63;;;28.13;36.58
71915;BME280;60387;49.994;14.660;2023-05-23T08:04:34;97285.94;;;28.20;36.39
71915;BME280;60387;49.994;14.660;2023-05-23T08:07:07;97295.72;;;28.28;35.54
71915;BME280;60387;49.994;14.660;2023-05-23T08:09:41;97284.94;;;28.30;35.70
71915;BME280;60387;49.994;14.660;2023-05-23T08:12:14;97288.03;;;28.36;35.01
71915;BME280;60387;49.994;14.660;2023-05-23T08:14:47;97294.22;;;28.47;34.41
71915;BME280;60387;49.994;14.660;2023-05-23T08:17:21;97298.06;;;28.53;35.40
71915;BME280;60387;49.994;14.660;2023-05-23T08:19:54;97309.72;;;28.67;34.63
71915;BME280;60387;49.994;14.660;2023-05-23T08:22:27;97306.84;;;28.90;34.56
71915;BME280;60387;49.994;14.660;2023-05-23T08:25:00;97315.28;;;29.06;34.22
71915;BME280;60387;49.994;14.660;2023-05-23T08:27:36;97327.06;;;29.14;33.74
71915;BME280;60387;49.994;14.660;2023-05-23T08:30:10;97318.63;;;29.17;33.35
71915;BME280;60387;49.994;14.660;2023-05-23T08:32:43;97305.28;;;29.09;33.09
71915;BME280;60387;49.994;14.660;2023-05-23T08:35:16;97335.00;;;29.15;33.10
71915;BME280;60387;49.994;14.660;2023-05-23T08:37:50;97331.53;;;29.11;33.90
71915;BME280;60387;49.994;14.660;2023-05-23T08:40:23;97327.16;;;29.10;33.79
71915;BME280;60387;49.994;14.660;2023-05-23T08:42:57;97325.56;;;29.09;34.02
71915;BME280;60387;49.994;14.660;2023-05-23T08:45:31;97331.69;;;29.04;33.90
71915;BME280;60387;49.994;14.660;2023-05-23T08:48:07;97339.19;;;29.07;34.18
71915;BME280;60387;49.994;14.660;2023-05-23T08:50:42;97344.59;;;29.14;34.54
71915;BME280;60387;49.994;14.660;2023-05-23T08:53:19;97353.47;;;29.09;34.03
71915;BME280;60387;49.994;14.660;2023-05-23T08:55:55;97348.09;;;29.18;34.10
71915;BME280;60387;49.994;14.660;2023-05-23T08:58:29;97342.28;;;29.29;34.19
71915;BME280;60387;49.994;14.660;2023-05-23T09:01:03;97348.06;;;29.38;33.67
71915;BME280;60387;49.994;14.660;2023-05-23T09:03:36;97349.41;;;29.49;34.31
71915;BME280;60387;49.994;14.660;2023-05-23T09:06:10;97340.69;;;29.47;33.78
71915;BME280;60387;49.994;14.660;2023-05-23T09:08:43;97340.34;;;29.45;33.38
71915;BME280;60387;49.994;14.660;2023-05-23T09:11:17;97342.06;;;29.39;33.45
71915;BME280;60387;49.994;14.660;2023-05-23T09:13:50;97343.44;;;29.31;34.30
71915;BME280;60387;49.994;14.660;2023-05-23T09:16:31;97343.44;;;29.31;34.07
71915;BME280;60387;49.994;14.660;2023-05-23T09:19:14;97351.34;;;29.17;34.00
71915;BME280;60387;49.994;14.660;2023-05-23T09:21:47;97353.31;;;29.16;34.17
71915;BME280;60387;49.994;14.660;2023-05-23T09:24:20;97361.28;;;28.98;34.13
71915;BME280;60387;49.994;14.660;2023-05-23T09:26:54;97358.75;;;28.84;34.30
71915;BME280;60387;49.994;14.660;2023-05-23T09:29:27;97361.03;;;28.89;34.83
71915;BME280;60387;49.994;14.660;2023-05-23T09:32:14;97361.84;;;29.09;34.72
71915;BME280;60387;49.994;14.660;2023-05-23T09:34:59;97358.31;;;29.44;34.46
71915;BME280;60387;49.994;14.660;2023-05-23T09:37:38;97362.22;;;29.82;33.68
71915;BME280;60387;49.994;14.660;2023-05-23T09:40:13;97372.78;;;30.07;33.60
71915;BME280;60387;49.994;14.660;2023-05-23T09:42:47;97378.13;;;30.17;32.78
71915;BME280;60387;49.994;14.660;2023-05-23T09:45:31;97371.94;;;30.10;32.71
71915;BME280;60387;49.994;14.660;2023-05-23T09:48:11;97381.69;;;30.02;32.89
71915;BME280;60387;49.994;14.660;2023-05-23T09:50:44;97389.25;;;29.85;32.63
71915;BME280;60387;49.994;14.660;2023-05-23T09:53:18;97394.06;;;29.69;32.95
71915;BME280;60387;49.994;14.660;2023-05-23T09:55:52;97387.22;;;29.54;33.55
71915;BME280;60387;49.994;14.660;2023-05-23T09:58:27;97382.56;;;29.28;33.88
71915;BME280;60387;49.994;14.660;2023-05-23T10:01:01;97387.19;;;28.99;34.51
71915;BME280;60387;49.994;14.660;2023-05-23T10:03:49;97387.06;;;28.63;34.99
71915;BME280;60387;49.994;14.660;2023-05-23T10:06:25;97400.41;;;28.29;36.14
71915;BME280;60387;49.994;14.660;2023-05-23T10:09:04;97397.47;;;27.90;37.60
71915;BME280;60387;49.994;14.660;2023-05-23T10:14:53;97388.53;;;27.20;38.77
71915;BME280;60387;49.994;14.660;2023-05-23T10:20:24;97381.16;;;26.73;38.91
71915;BME280;60387;49.994;14.660;2023-05-23T10:23:00;97391.69;;;26.55;39.24
71915;BME280;60387;49.994;14.660;2023-05-23T10:25:34;97391.81;;;26.37;39.74
71915;BME280;60387;49.994;14.660;2023-05-23T10:28:08;97384.47;;;26.17;39.59
71915;BME280;60387;49.994;14.660;2023-05-23T10:30:41;97397.19;;;26.14;40.46
71915;BME280;60387;49.994;14.660;2023-05-23T10:33:16;97400.41;;;26.13;40.03
71915;BME280;60387;49.994;14.660;2023-05-23T10:36:04;97386.09;;;26.14;39.70
71915;BME280;60387;49.994;14.660;2023-05-23T10:39:04;97394.28;;;26.28;42.15
71915;BME280;60387;49.994;14.660;2023-05-23T10:41:58;97383.97;;;26.29;40.17
71915;BME280;60387;49.994;14.660;2023-05-23T10:44:33;97385.56;;;26.30;41.56
71915;BME280;60387;49.994;14.660;2023-05-23T10:47:06;97380.84;;;26.23;40.98
71915;BME280;60387;49.994;14.660;2023-05-23T10:49:40;97377.72;;;26.18;41.02
71915;BME280;60387;49.994;14.660;2023-05-23T10:52:15;97377.38;;;26.12;41.10
71915;BME280;60387;49.994;14.660;2023-05-23T10:54:52;97373.88;;;26.08;41.59
71915;BME280;60387;49.994;14.660;2023-05-23T10:57:25;97366.00;;;26.00;41.90
71915;BME280;60387;49.994;14.660;2023-05-23T10:59:59;97383.91;;;25.92;41.36
71915;BME280;60387;49.994;14.660;2023-05-23T11:02:32;97383.56;;;25.79;41.63
71915;BME280;60387;49.994;14.660;2023-05-23T11:05:27;97384.88;;;25.64;42.36
71915;BME280;60387;49.994;14.660;2023-05-23T11:08:10;97379.06;;;25.48;41.99
71915;BME280;60387;49.994;14.660;2023-05-23T11:11:00;97373.56;;;25.38;41.91
71915;BME280;60387;49.994;14.660;2023-05-23T11:16:30;97373.59;;;25.31;43.50
71915;BME280;60387;49.994;14.660;2023-05-23T11:21:59;97369.56;;;25.46;42.78
71915;BME280;60387;49.994;14.660;2023-05-23T11:24:54;97368.75;;;25.49;42.99
71915;BME280;60387;49.994;14.660;2023-05-23T11:27:36;97369.56;;;25.46;42.78
71915;BME280;60387;49.994;14.660;2023-05-23T11:30:16;97374.28;;;25.49;43.58
71915;BME280;60387;49.994;14.660;2023-05-23T11:32:51;97366.31;;;25.54;43.94
71915;BME280;60387;49.994;14.660;2023-05-23T11:35:25;97374.53;;;25.72;43.80
71915;BME280;60387;49.994;14.660;2023-05-23T11:38:01;97381.16;;;25.85;43.94
71915;BME280;60387;49.994;14.660;2023-05-23T11:40:40;97374.28;;;26.03;43.14
71915;BME280;60387;49.994;14.660;2023-05-23T11:43:15;97371.44;;;26.14;43.55
71915;BME280;60387;49.994;14.660;2023-05-23T11:45:49;97366.66;;;26.14;42.90
71915;BME280;60387;49.994;14.660;2023-05-23T11:48:22;97372.19;;;26.14;42.40
71915;BME280;60387;49.994;14.660;2023-05-23T11:50:55;97385.63;;;26.23;43.51
71915;BME280;60387;49.994;14.660;2023-05-23T11:53:29;97385.63;;;26.23;42.83
71915;BME280;60387;49.994;14.660;2023-05-23T11:56:03;97389.59;;;26.22;42.81
71915;BME280;60387;49.994;14.660;2023-05-23T11:58:38;97383.31;;;26.14;43.53
71915;BME280;60387;49.994;14.660;2023-05-23T12:01:11;97385.78;;;26.05;42.77
71915;BME280;60387;49.994;14.660;2023-05-23T12:03:46;97386.25;;;25.97;43.05
71915;BME280;60387;49.994;14.660;2023-05-23T12:06:21;97381.56;;;25.87;43.30
71915;BME280;60387;49.994;14.660;2023-05-23T12:08:54;97380.38;;;25.84;44.06
71915;BME280;60387;49.994;14.660;2023-05-23T12:11:30;97385.94;;;25.81;43.88
71915;BME280;60387;49.994;14.660;2023-05-23T12:14:04;97383.19;;;25.77;43.48
71915;BME280;60387;49.994;14.660;2023-05-23T12:16:38;97372.06;;;25.81;44.19
71915;BME280;60387;49.994;14.660;2023-05-23T12:19:12;97372.84;;;25.81;43.88
71915;BME280;60387;49.994;14.660;2023-05-23T12:21:49;97370.88;;;25.82;43.79
71915;BME280;60387;49.994;14.660;2023-05-23T12:24:22;97378.78;;;25.87;43.64
71915;BME280;60387;49.994;14.660;2023-05-23T12:27:00;97373.16;;;25.94;44.44
71915;BME280;60387;49.994;14.660;2023-05-23T12:29:34;97369.13;;;26.05;44.85
71915;BME280;60387;49.994;14.660;2023-05-23T12:32:07;97376.09;;;26.24;43.90
71915;BME280;60387;49.994;14.660;2023-05-23T12:34:41;97357.25;;;26.42;43.46
71915;BME280;60387;49.994;14.660;2023-05-23T12:37:15;97364.88;;;26.71;43.83
71915;BME280;60387;49.994;14.660;2023-05-23T12:39:48;97366.25;;;26.90;43.56
71915;BME280;60387;49.994;14.660;2023-05-23T12:42:22;97374.81;;;27.06;42.62
71915;BME280;60387;49.994;14.660;2023-05-23T12:44:55;97368.72;;;27.18;43.01
71915;BME280;60387;49.994;14.660;2023-05-23T12:47:28;97373.34;;;27.27;42.87
71915;BME280;60387;49.994;14.660;2023-05-23T12:50:02;97372.06;;;27.32;42.90
71915;BME280;60387;49.994;14.660;2023-05-23T12:52:35;97373.19;;;27.38;42.87
71915;BME280;60387;49.994;14.660;2023-05-23T12:55:09;97378.34;;;27.39;42.41
71915;BME280;60387;49.994;14.660;2023-05-23T12:57:42;97380.22;;;27.46;42.53
71915;BME280;60387;49.994;14.660;2023-05-23T13:00:16;97364.63;;;27.52;42.70
71915;BME280;60387;49.994;14.660;2023-05-23T13:02:49;97371.59;;;27.63;42.53
71915;BME280;60387;49.994;14.660;2023-05-23T13:05:23;97372.72;;;27.69;41.51
71915;BME280;60387;49.994;14.660;2023-05-23T13:07:56;97376.53;;;27.82;41.53
71915;BME280;60387;49.994;14.660;2023-05-23T13:10:29;97368.44;;;27.91;41.33
71915;BME280;60387;49.994;14.660;2023-05-23T13:13:03;97365.03;;;28.03;40.71
71915;BME280;60387;49.994;14.660;2023-05-23T13:15:36;97367.28;;;28.12;40.70
71915;BME280;60387;49.994;14.660;2023-05-23T13:18:10;97366.44;;;28.15;41.00
71915;BME280;60387;49.994;14.660;2023-05-23T13:20:43;97358.38;;;28.20;40.78
71915;BME280;60387;49.994;14.660;2023-05-23T13:23:16;97360.75;;;28.22;40.66
71915;BME280;60387;49.994;14.660;2023-05-23T13:25:49;97365.44;;;28.25;40.43
71915;BME280;60387;49.994;14.660;2023-05-23T13:28:23;97366.88;;;28.36;40.73
71915;BME280;60387;49.994;14.660;2023-05-23T13:30:56;97370.75;;;28.42;40.22
71915;BME280;60387;49.994;14.660;2023-05-23T13:33:30;97365.34;;;28.55;40.66
71915;BME280;60387;49.994;14.660;2023-05-23T13:36:03;97364.28;;;28.68;40.48
71915;BME280;60387;49.994;14.660;2023-05-23T13:38:36;97355.53;;;28.86;40.33
71915;BME280;60387;49.994;14.660;2023-05-23T13:41:10;97360.00;;;29.03;39.35
71915;BME280;60387;49.994;14.660;2023-05-23T13:43:43;97357.47;;;29.08;39.23
71915;BME280;60387;49.994;14.660;2023-05-23T13:46:16;97348.84;;;29.03;38.73